Accueil
METAR-TAF:

METAR-TAF

Aéroports :

Grande Canarie, Espagne

Aéroport de Gran Canaria

latitude: 27-56N, longitude: 015-23W, altitude: 23 m

Observation

Le bulletin a été fait il y a 25 minutes, à 03:30 UTC
Vent 7 kt de nord
Température 16°C
Humidité 88%
Pression 1016 hPa
Visibilité 10 km ou plus
Quelques nuages à une hauteur de 3000 ft

METAR: GCLP 230330Z 35007KT 9999 FEW030 16/14 Q1016 NOSIG

Heure: 04:55 (03:55 UTC)

Prévision

Le bulletin a été fait il y a 1 heure et 55 minutes, à 02:00 UTC
Prévision valable du 23 à 03 UTC au 24 à 03 UTC
Vent 10 kt de nord/nord-ouest
Visibilité 10 km ou plus
Nuages épars à une hauteur de 3000 ft
Probabilité 40% :
Temporairement
du 23 à 12 UTC au 23 à 22 UTC
Vent 18 kt de nord avec des rafales jusqu'à 28 kt

TAF: GCLP 230200Z 2303/2403 34010KT 9999 SCT030 TX21/2314Z TN16/2306Z PROB40 TEMPO 2312/2322 35018G28KT

Observations et prévisions météorologiques de plus de 4000 aéroports (messages METAR et TAF).

Les stations disponibles sont représentées par des disques jaunes et rouges sur la carte.

Passer la souris dessus pour voir le nom de la station.

Cliquer dessus pour voir les observations et prévisions météorologiques.

Pour changer de carte: cliquez sur les boutons verts avec une croix noire pour zoomer, sur le bouton vert avec un tiret pour effectuer un zoom arrière, ou sur les flèches vertes pour les cartes adjacentes.


METAR-TAF: